createdAt,value
2022-11-07T00:04:56.611Z,79.02
2022-11-07T00:11:19.564Z,79.07
2022-11-07T00:17:39.697Z,79.1
2022-11-07T00:24:02.587Z,79.5
2022-11-07T00:30:22.596Z,79.69
2022-11-07T00:36:45.732Z,79.77
2022-11-07T00:43:06.566Z,80.07
2022-11-07T00:49:29.574Z,79.95
2022-11-07T00:55:49.615Z,80.03
2022-11-07T01:02:12.668Z,79.9
2022-11-07T01:08:32.642Z,79.71
2022-11-07T01:14:55.605Z,79.57
2022-11-07T01:21:16.722Z,79.47
2022-11-07T01:27:38.562Z,79.42
2022-11-07T01:33:58.609Z,79.54
2022-11-07T01:40:21.602Z,79.67
2022-11-07T01:46:41.561Z,79.84
2022-11-07T01:53:04.606Z,79.9
2022-11-07T01:59:24.576Z,79.94
2022-11-07T02:05:47.604Z,79.89
2022-11-07T02:12:07.587Z,79.99
2022-11-07T02:18:30.562Z,80.21
2022-11-07T02:24:50.585Z,79.82
2022-11-07T02:31:13.601Z,79.68
2022-11-07T02:37:33.583Z,79.55
2022-11-07T02:43:56.569Z,79.64
2022-11-07T02:50:16.587Z,79.42
2022-11-07T02:56:39.583Z,79.43
2022-11-07T03:02:59.629Z,79.43
2022-11-07T03:09:22.612Z,79.43
2022-11-07T03:15:42.569Z,79.45
2022-11-07T03:22:05.584Z,79.59
2022-11-07T03:28:25.614Z,79.7
2022-11-07T03:34:48.569Z,79.81
2022-11-07T03:41:08.579Z,79.76
2022-11-07T03:47:31.589Z,79.89
2022-11-07T03:53:51.574Z,79.84
2022-11-07T04:00:14.652Z,80.12
2022-11-07T04:06:34.586Z,80.27
2022-11-07T04:12:57.579Z,80.46
2022-11-07T04:19:17.556Z,80.93
2022-11-07T04:25:40.591Z,80.64
2022-11-07T04:32:00.571Z,81.1
2022-11-07T04:48:11.563Z,82.39
2022-11-07T04:54:31.562Z,82.76
2022-11-07T05:00:54.654Z,83.3
2022-11-07T05:07:14.574Z,83.83
2022-11-07T05:13:37.563Z,84.14
2022-11-07T05:19:57.599Z,83.99
2022-11-07T05:26:20.623Z,83.96
2022-11-07T05:32:40.568Z,84.29
2022-11-07T05:39:03.587Z,84.54
2022-11-07T05:45:23.618Z,84.87
2022-11-07T05:51:46.568Z,85.03
2022-11-07T05:58:07.121Z,85.38
2022-11-07T06:04:29.601Z,85.35
2022-11-07T06:10:49.606Z,85.21
2022-11-07T06:17:12.561Z,85.48
2022-11-07T06:23:32.608Z,86.35
2022-11-07T06:29:55.611Z,86.08
2022-11-07T06:36:15.578Z,85.64
2022-11-07T06:42:38.695Z,85.43
2022-11-07T06:48:58.593Z,85.33
2022-11-07T06:55:21.600Z,85.08
2022-11-07T07:01:41.730Z,84.1
2022-11-07T07:08:04.589Z,83.24
2022-11-07T07:14:24.582Z,82.45
2022-11-07T07:20:47.703Z,81.85
2022-11-07T07:27:07.577Z,81.29
2022-11-07T07:33:30.592Z,80.48
2022-11-07T07:39:50.712Z,79.49
2022-11-07T07:46:13.603Z,78.47
2022-11-07T07:52:33.573Z,77.71
2022-11-07T07:58:56.736Z,77.3
2022-11-07T08:05:16.581Z,77.34
2022-11-07T08:11:39.588Z,76.47
2022-11-07T08:17:59.696Z,76.07
2022-11-07T08:24:22.575Z,75.79
2022-11-07T08:30:42.591Z,76.04
2022-11-07T08:37:05.605Z,76.29
2022-11-07T08:43:25.591Z,76.09
2022-11-07T08:49:48.596Z,75.44
2022-11-07T08:56:08.586Z,74.86
2022-11-07T09:08:51.567Z,73.65
2022-11-07T09:15:14.593Z,73.72
2022-11-07T09:21:34.580Z,74.17
2022-11-07T09:27:57.598Z,72.83
2022-11-07T09:34:17.617Z,72.38
2022-11-07T09:40:40.821Z,72.13
2022-11-07T09:47:00.574Z,71.81
2022-11-07T09:53:23.624Z,72.02
2022-11-07T09:59:43.576Z,71.64
2022-11-07T10:16:47.533Z,71.1
2022-11-07T10:23:07.572Z,71.31
2022-11-07T10:29:30.589Z,71.54
2022-11-07T10:35:50.616Z,71.88
2022-11-07T10:42:13.567Z,70.88
2022-11-07T10:48:33.889Z,70.35
2022-11-07T10:54:56.621Z,70.11
2022-11-07T11:01:16.699Z,69.48
2022-11-07T11:07:39.592Z,69.39
2022-11-07T11:13:59.592Z,67.76
2022-11-07T11:20:22.587Z,67.15
2022-11-07T11:26:42.593Z,65.56
2022-11-07T11:33:05.690Z,65.71
2022-11-07T11:39:25.656Z,64.75
2022-11-07T11:45:48.574Z,64.63
2022-11-07T11:52:08.724Z,65.35
2022-11-07T11:58:31.569Z,66.27
2022-11-07T12:04:51.564Z,65.72
2022-11-07T12:11:14.783Z,66.19
2022-11-07T12:17:34.587Z,66.51
2022-11-07T12:23:57.599Z,65.56
2022-11-07T12:30:17.654Z,66.03
2022-11-07T12:36:40.596Z,66.17
2022-11-07T12:43:00.598Z,65.54
2022-11-07T12:49:23.616Z,65.38
2022-11-07T12:55:43.587Z,65.14
2022-11-07T13:02:06.702Z,65.51
2022-11-07T13:08:28.721Z,65.36
2022-11-07T13:14:49.599Z,64.54
2022-11-07T13:21:09.569Z,64.32
2022-11-07T13:27:32.615Z,65.1
2022-11-07T13:33:52.581Z,65.62
2022-11-07T13:40:15.833Z,65.58
2022-11-07T13:46:35.825Z,65.66
2022-11-07T13:52:58.621Z,65.48
2022-11-07T13:59:18.584Z,65.75
2022-11-07T14:05:41.586Z,66.21
2022-11-07T14:12:01.585Z,65.46
2022-11-07T14:18:24.762Z,65.15
2022-11-07T14:24:44.867Z,66.13
2022-11-07T14:31:07.575Z,67.42
2022-11-07T14:37:27.567Z,68.2
2022-11-07T14:43:50.604Z,68.87
2022-11-07T14:50:10.577Z,69.46
2022-11-07T14:56:33.622Z,69.68
2022-11-07T15:02:53.680Z,70.67
2022-11-07T15:09:16.592Z,70.69
2022-11-07T15:15:36.824Z,70.64
2022-11-07T15:21:59.890Z,70.9
2022-11-07T15:38:54.523Z,70.63
2022-11-07T15:45:17.568Z,70.55
2022-11-07T15:51:37.570Z,70.99
2022-11-07T15:58:00.610Z,71.11
2022-11-07T16:04:20.648Z,71.47
2022-11-07T16:10:43.609Z,71.68
2022-11-07T16:17:03.609Z,71.92
2022-11-07T16:23:26.577Z,71.93
2022-11-07T16:29:46.563Z,72.04
2022-11-07T16:36:09.621Z,72.38
2022-11-07T16:42:29.581Z,72.64
2022-11-07T16:48:52.702Z,72.74
2022-11-07T16:55:12.628Z,73.43
2022-11-07T17:01:35.658Z,73.93
2022-11-07T17:07:55.558Z,73.98
2022-11-07T17:14:18.987Z,73.85
2022-11-07T17:20:50.742Z,74.05
2022-11-07T17:27:01.606Z,74.2
2022-11-07T17:33:21.588Z,74.19
2022-11-07T17:39:44.590Z,74.17
2022-11-07T17:46:04.556Z,73.6
2022-11-07T17:52:27.649Z,73.51
2022-11-07T17:58:47.579Z,73.55
2022-11-07T18:05:10.582Z,73.27
2022-11-07T18:11:30.643Z,73.17
2022-11-07T18:17:53.560Z,72.9
2022-11-07T18:24:13.567Z,72.93
2022-11-07T18:30:36.619Z,72.94
2022-11-07T18:36:56.561Z,73.19
2022-11-07T18:43:19.605Z,73.02
2022-11-07T18:49:39.604Z,73.25
2022-11-07T18:56:02.557Z,73.46
2022-11-07T19:02:22.671Z,73.74
2022-11-07T19:08:45.588Z,74.02
2022-11-07T19:15:05.562Z,74.39
2022-11-07T19:21:28.566Z,74.77
2022-11-07T19:27:48.602Z,75.29
2022-11-07T19:34:11.595Z,75.82
2022-11-07T19:40:31.564Z,76.22
2022-11-07T19:46:54.591Z,76.72
2022-11-07T19:53:14.787Z,77.2
2022-11-07T19:59:37.565Z,77.47
2022-11-07T20:05:57.598Z,77.96
2022-11-07T20:12:20.561Z,78.57
2022-11-07T20:18:40.569Z,78.97
2022-11-07T20:25:03.605Z,79.2
2022-11-07T20:31:23.579Z,79.83
2022-11-07T20:37:46.603Z,80.55
2022-11-07T20:44:06.602Z,80.93
2022-11-07T20:50:29.571Z,81.16
2022-11-07T21:08:52.991Z,82.92
2022-11-07T21:15:12.569Z,82.76
2022-11-07T21:21:35.561Z,83.19
2022-11-07T21:27:55.618Z,83.32
2022-11-07T21:34:18.557Z,83.63
2022-11-07T21:40:38.601Z,83.8
2022-11-07T21:47:01.648Z,83.83
2022-11-07T21:53:21.563Z,83.97
2022-11-07T21:59:44.586Z,83.9
2022-11-07T22:06:04.617Z,83.75
2022-11-07T22:12:27.718Z,83.99
2022-11-07T22:18:47.604Z,84.01
2022-11-07T22:25:10.596Z,84.66
2022-11-07T22:31:30.586Z,84.45
2022-11-07T22:37:53.567Z,84.69
2022-11-07T22:44:13.688Z,85.84
2022-11-07T22:50:36.568Z,85.63
2022-11-07T22:56:56.558Z,85.54
2022-11-07T23:19:53.575Z,81.62
2022-11-07T23:26:13.548Z,81.19
2022-11-07T23:32:36.603Z,80.78
2022-11-07T23:38:56.616Z,80.47
2022-11-07T23:45:19.593Z,80.68
2022-11-07T23:51:39.605Z,81.5
2022-11-07T23:58:02.627Z,81.98
